Dryden, Washington
Current Conditions -  °F | °C
As of 7:55 PM on Wednesday 22 Oct 2014 (Local Time) from KEAT Reporting Station
Light Rain Light Rain  
Wind Chill: 50°   Ceiling: 700
Heat Index: 50°   Visibility: 6mi
Dew Point: 47°   Wind: 5mph
Humidity: 89%   Direction: 250°WSW
Pressure: 29.66"   Gusts: NA
Location:  47.54°N, 120.56°W
Report Text: KEAT 230255Z AUTO 25004KT 6SM -RA BR OVC007 10/08 A2966 RMK AO2 SLP044 P0001 60003 T01000083 56017
Loading
Personal Weather Stations






























Interactive Weather Map
Tropical Storm Tracking
New forecast layout! Learn more

10-Day Weather Forecast

Advertisements
Track Severe Weather on mobile